Station: ELLX - 13/05/2021 20:20Z (il y a 33 minutes)
ELLX 132020Z 23006KT 9999 FEW048 10/05 Q1008 NOSIG
Vent du 230º - 6 kt
Visibilité > 10 km
Nuages épars à 4800 pieds
Température: +10ºC - Point de rosée: +05ºC - QNH: 1008 hPa
Pas de changement significatif prévu dans les 2 heures qui suivent l'observation